EGGW

London Luton Airport

London, United Kingdom
METAR EGGW 211520Z AUTO 14005KT 9999 -RA SCT027 BKN034 20/14 Q1018
Observed Flight Rules
Apr-21 @ 15:20 UTC (21 minutes ago) Visual Flight Rules
Wind Visibility Clouds Conditions
140° at 5 knots 10,000+ meters
  • Scattered at 2,700' AGL
  • Broken at 3,400' AGL
  • Light Rain
Temperatures Readings
Current 20°C / 68°F
Dewpoint 14°C / 57°F
Humidity 69%
Altimeter 30.06" Hg
Pressure 1018 hPa
Elevation 160
METAR EGGW 211520Z AUTO 14005KT 9999 -RA SCT027 BKN034 20/14 Q1018
Observed Flight Rules
Apr-21 @ 15:20 UTC
(21 minutes ago)
VFR
Wind Visibility
140° at 5 knots 10,000+ meters
Clouds
  • Scattered at 2,700' AGL
  • Broken at 3,400' AGL
Conditions
  • Light Rain
Temperature Dewpoint
20°C / 68°F 14°C / 57°F
Humidity Altimeter Pressure
69% 30.06" Hg 1018 hPa